Vernon, Alabama
Current Conditions -  °F | °C
As of 11:58 PM on Sunday 25 Jan 2015 (Local Time) from KCBM Reporting Station
Overcast Overcast  
Wind Chill:   Ceiling: 3600
Heat Index:   Visibility: 10mi
Dew Point:   Wind: 20mph
Humidity: 67%   Direction: 310°NW
Pressure: 29.89"   Gusts: 29mph
Location:  33.76°N, 88.11°W
Report Text: KCBM 260558Z AUTO 31017G25KT 10SM OVC036 07/01 A2989 RMK AO2 SLP125 60002 T00710013 10118 20071 401741021 52017 $
Loading
Personal Weather Stations






























Interactive Weather Map New forecast layout! Learn more

10-Day Weather Forecast

Advertisements
Track Severe Weather on mobile